sensor_id;sensor_type;location;lat;lon;timestamp;temperature;humidity
46492;DHT22;32206;51.446;6.792;2023-06-19T00:01:24;24.20;1.00
46492;DHT22;32206;51.446;6.792;2023-06-19T00:03:49;24.10;1.00
46492;DHT22;32206;51.446;6.792;2023-06-19T00:12:59;24.00;1.00
46492;DHT22;32206;51.446;6.792;2023-06-19T00:15:25;24.00;1.00
46492;DHT22;32206;51.446;6.792;2023-06-19T00:17:50;23.90;1.00
46492;DHT22;32206;51.446;6.792;2023-06-19T00:20:16;23.90;1.00
46492;DHT22;32206;51.446;6.792;2023-06-19T00:22:43;23.80;1.00
46492;DHT22;32206;51.446;6.792;2023-06-19T00:31:41;23.80;40.10
46492;DHT22;32206;51.446;6.792;2023-06-19T00:34:06;23.70;52.50
46492;DHT22;32206;51.446;6.792;2023-06-19T00:36:32;23.70;95.20
46492;DHT22;32206;51.446;6.792;2023-06-19T00:38:58;23.60;99.90
46492;DHT22;32206;51.446;6.792;2023-06-19T00:41:25;23.50;99.90
46492;DHT22;32206;51.446;6.792;2023-06-19T00:43:51;23.40;99.90
46492;DHT22;32206;51.446;6.792;2023-06-19T00:46:19;23.40;99.90
46492;DHT22;32206;51.446;6.792;2023-06-19T00:48:45;23.40;99.90
46492;DHT22;32206;51.446;6.792;2023-06-19T00:51:10;23.40;99.90
46492;DHT22;32206;51.446;6.792;2023-06-19T00:53:37;23.30;99.90
46492;DHT22;32206;51.446;6.792;2023-06-19T00:56:03;23.30;99.90
46492;DHT22;32206;51.446;6.792;2023-06-19T00:58:29;23.30;99.90
46492;DHT22;32206;51.446;6.792;2023-06-19T01:00:55;23.30;99.90
46492;DHT22;32206;51.446;6.792;2023-06-19T01:03:22;23.30;99.90
46492;DHT22;32206;51.446;6.792;2023-06-19T01:05:49;23.20;1.00
46492;DHT22;32206;51.446;6.792;2023-06-19T01:08:41;23.20;1.00
46492;DHT22;32206;51.446;6.792;2023-06-19T01:11:09;23.20;1.00
46492;DHT22;32206;51.446;6.792;2023-06-19T01:13:53;23.10;1.00
46492;DHT22;32206;51.446;6.792;2023-06-19T01:16:21;23.00;1.00
46492;DHT22;32206;51.446;6.792;2023-06-19T01:18:48;23.10;22.50
46492;DHT22;32206;51.446;6.792;2023-06-19T01:21:18;23.00;19.10
46492;DHT22;32206;51.446;6.792;2023-06-19T01:23:44;23.00;85.50
46492;DHT22;32206;51.446;6.792;2023-06-19T01:26:11;22.90;99.90
46492;DHT22;32206;51.446;6.792;2023-06-19T01:28:41;22.90;99.90
46492;DHT22;32206;51.446;6.792;2023-06-19T01:31:33;22.90;99.90
46492;DHT22;32206;51.446;6.792;2023-06-19T01:34:01;22.80;99.90
46492;DHT22;32206;51.446;6.792;2023-06-19T01:36:29;22.80;1.00
46492;DHT22;32206;51.446;6.792;2023-06-19T01:38:57;22.70;1.00
46492;DHT22;32206;51.446;6.792;2023-06-19T01:41:24;22.70;31.40
46492;DHT22;32206;51.446;6.792;2023-06-19T01:43:51;22.60;99.90
46492;DHT22;32206;51.446;6.792;2023-06-19T01:46:18;22.60;99.90
46492;DHT22;32206;51.446;6.792;2023-06-19T01:48:43;22.50;99.90
46492;DHT22;32206;51.446;6.792;2023-06-19T01:51:09;22.50;1.00
46492;DHT22;32206;51.446;6.792;2023-06-19T01:53:35;22.40;1.00
46492;DHT22;32206;51.446;6.792;2023-06-19T01:56:01;22.40;54.10
46492;DHT22;32206;51.446;6.792;2023-06-19T01:58:27;22.40;99.90
46492;DHT22;32206;51.446;6.792;2023-06-19T02:00:53;22.30;99.90
46492;DHT22;32206;51.446;6.792;2023-06-19T02:03:18;22.30;99.90
46492;DHT22;32206;51.446;6.792;2023-06-19T02:05:44;22.30;1.00
46492;DHT22;32206;51.446;6.792;2023-06-19T02:08:10;22.30;99.90
46492;DHT22;32206;51.446;6.792;2023-06-19T02:10:35;22.20;99.90
46492;DHT22;32206;51.446;6.792;2023-06-19T02:13:01;22.20;1.00
46492;DHT22;32206;51.446;6.792;2023-06-19T02:15:27;22.20;53.20
46492;DHT22;32206;51.446;6.792;2023-06-19T02:17:56;22.20;1.00
46492;DHT22;32206;51.446;6.792;2023-06-19T02:20:23;22.20;1.00
46492;DHT22;32206;51.446;6.792;2023-06-19T02:22:50;22.20;1.00
46492;DHT22;32206;51.446;6.792;2023-06-19T02:25:16;22.20;1.00
46492;DHT22;32206;51.446;6.792;2023-06-19T02:27:41;22.20;99.90
46492;DHT22;32206;51.446;6.792;2023-06-19T02:34:13;22.10;1.00
46492;DHT22;32206;51.446;6.792;2023-06-19T02:36:39;22.10;57.80
46492;DHT22;32206;51.446;6.792;2023-06-19T02:39:05;22.20;1.00
46492;DHT22;32206;51.446;6.792;2023-06-19T02:41:33;22.20;99.90
46492;DHT22;32206;51.446;6.792;2023-06-19T02:43:59;22.20;1.00
46492;DHT22;32206;51.446;6.792;2023-06-19T02:46:24;22.20;1.00
46492;DHT22;32206;51.446;6.792;2023-06-19T02:48:50;22.20;1.00
46492;DHT22;32206;51.446;6.792;2023-06-19T02:51:16;22.20;1.00
46492;DHT22;32206;51.446;6.792;2023-06-19T02:53:41;22.20;99.90
46492;DHT22;32206;51.446;6.792;2023-06-19T02:56:11;22.30;99.90
46492;DHT22;32206;51.446;6.792;2023-06-19T02:58:37;22.40;99.90
46492;DHT22;32206;51.446;6.792;2023-06-19T03:01:03;22.40;1.00
46492;DHT22;32206;51.446;6.792;2023-06-19T03:03:32;22.40;99.90
46492;DHT22;32206;51.446;6.792;2023-06-19T03:06:05;22.40;99.90
46492;DHT22;32206;51.446;6.792;2023-06-19T03:08:33;22.40;23.40
46492;DHT22;32206;51.446;6.792;2023-06-19T03:10:59;22.40;99.90
46492;DHT22;32206;51.446;6.792;2023-06-19T03:13:25;22.50;1.00
46492;DHT22;32206;51.446;6.792;2023-06-19T03:15:50;22.40;99.90
46492;DHT22;32206;51.446;6.792;2023-06-19T03:18:16;22.40;99.90
46492;DHT22;32206;51.446;6.792;2023-06-19T03:20:42;22.50;99.90
46492;DHT22;32206;51.446;6.792;2023-06-19T03:26:26;22.40;1.00
46492;DHT22;32206;51.446;6.792;2023-06-19T03:28:52;22.40;99.90
46492;DHT22;32206;51.446;6.792;2023-06-19T03:31:18;22.50;99.90
46492;DHT22;32206;51.446;6.792;2023-06-19T03:33:51;22.40;1.00
46492;DHT22;32206;51.446;6.792;2023-06-19T03:36:17;22.30;1.00
46492;DHT22;32206;51.446;6.792;2023-06-19T03:38:42;22.30;99.90
46492;DHT22;32206;51.446;6.792;2023-06-19T03:41:08;22.30;1.00
46492;DHT22;32206;51.446;6.792;2023-06-19T03:43:34;22.20;99.90
46492;DHT22;32206;51.446;6.792;2023-06-19T03:45:59;22.10;24.10
46492;DHT22;32206;51.446;6.792;2023-06-19T03:48:25;22.10;99.90
46492;DHT22;32206;51.446;6.792;2023-06-19T03:50:50;22.10;1.00
46492;DHT22;32206;51.446;6.792;2023-06-19T03:53:16;22.10;1.00
46492;DHT22;32206;51.446;6.792;2023-06-19T03:55:43;22.10;1.00
46492;DHT22;32206;51.446;6.792;2023-06-19T03:58:09;22.00;99.90
46492;DHT22;32206;51.446;6.792;2023-06-19T04:00:35;21.90;99.90
46492;DHT22;32206;51.446;6.792;2023-06-19T04:03:01;21.90;1.00
46492;DHT22;32206;51.446;6.792;2023-06-19T04:05:26;21.90;1.00
46492;DHT22;32206;51.446;6.792;2023-06-19T04:07:52;21.80;80.50
46492;DHT22;32206;51.446;6.792;2023-06-19T04:10:18;21.80;99.70
46492;DHT22;32206;51.446;6.792;2023-06-19T04:12:43;21.80;99.90
46492;DHT22;32206;51.446;6.792;2023-06-19T04:15:11;21.70;99.90
46492;DHT22;32206;51.446;6.792;2023-06-19T04:17:36;21.60;99.90
46492;DHT22;32206;51.446;6.792;2023-06-19T04:20:03;21.50;99.90
46492;DHT22;32206;51.446;6.792;2023-06-19T04:29:21;21.40;99.90
46492;DHT22;32206;51.446;6.792;2023-06-19T04:32:01;21.40;99.90
46492;DHT22;32206;51.446;6.792;2023-06-19T04:34:37;21.40;99.90
46492;DHT22;32206;51.446;6.792;2023-06-19T04:37:03;21.30;1.00
46492;DHT22;32206;51.446;6.792;2023-06-19T04:39:28;21.20;1.00
46492;DHT22;32206;51.446;6.792;2023-06-19T04:41:54;21.20;1.00
46492;DHT22;32206;51.446;6.792;2023-06-19T04:44:20;21.20;1.00
46492;DHT22;32206;51.446;6.792;2023-06-19T04:46:45;21.30;1.00
46492;DHT22;32206;51.446;6.792;2023-06-19T04:49:12;21.30;1.00
46492;DHT22;32206;51.446;6.792;2023-06-19T04:51:39;21.20;1.00
46492;DHT22;32206;51.446;6.792;2023-06-19T04:54:05;21.20;1.00
46492;DHT22;32206;51.446;6.792;2023-06-19T04:56:31;21.20;1.00
46492;DHT22;32206;51.446;6.792;2023-06-19T04:58:57;21.20;1.00
46492;DHT22;32206;51.446;6.792;2023-06-19T05:01:25;21.20;1.00
46492;DHT22;32206;51.446;6.792;2023-06-19T05:03:55;21.10;1.00
46492;DHT22;32206;51.446;6.792;2023-06-19T05:06:24;21.20;1.00
46492;DHT22;32206;51.446;6.792;2023-06-19T05:08:50;21.10;1.00
46492;DHT22;32206;51.446;6.792;2023-06-19T05:11:16;21.10;1.00
46492;DHT22;32206;51.446;6.792;2023-06-19T05:13:41;21.10;1.00
46492;DHT22;32206;51.446;6.792;2023-06-19T05:16:07;21.10;1.00
46492;DHT22;32206;51.446;6.792;2023-06-19T05:18:33;21.10;1.00
46492;DHT22;32206;51.446;6.792;2023-06-19T05:20:58;21.10;1.00
46492;DHT22;32206;51.446;6.792;2023-06-19T05:23:24;21.10;1.00
46492;DHT22;32206;51.446;6.792;2023-06-19T05:25:50;21.10;1.00
46492;DHT22;32206;51.446;6.792;2023-06-19T05:28:16;21.10;1.00
46492;DHT22;32206;51.446;6.792;2023-06-19T05:34:10;21.10;1.00
46492;DHT22;32206;51.446;6.792;2023-06-19T05:39:57;21.20;1.00
46492;DHT22;32206;51.446;6.792;2023-06-19T05:42:23;21.20;1.00
46492;DHT22;32206;51.446;6.792;2023-06-19T05:44:49;21.30;1.00
46492;DHT22;32206;51.446;6.792;2023-06-19T05:47:14;21.30;1.00
46492;DHT22;32206;51.446;6.792;2023-06-19T05:49:42;21.30;1.00
46492;DHT22;32206;51.446;6.792;2023-06-19T05:52:08;21.30;1.00
46492;DHT22;32206;51.446;6.792;2023-06-19T05:54:36;21.30;1.00
46492;DHT22;32206;51.446;6.792;2023-06-19T05:57:02;21.40;1.00
46492;DHT22;32206;51.446;6.792;2023-06-19T05:59:28;21.30;1.00
46492;DHT22;32206;51.446;6.792;2023-06-19T06:01:53;21.30;1.00
46492;DHT22;32206;51.446;6.792;2023-06-19T06:04:21;21.30;1.00
46492;DHT22;32206;51.446;6.792;2023-06-19T06:06:47;21.20;1.00
46492;DHT22;32206;51.446;6.792;2023-06-19T06:09:13;21.20;1.00
46492;DHT22;32206;51.446;6.792;2023-06-19T06:11:40;21.20;1.00
46492;DHT22;32206;51.446;6.792;2023-06-19T06:14:05;21.20;1.00
46492;DHT22;32206;51.446;6.792;2023-06-19T06:16:31;21.30;1.00
46492;DHT22;32206;51.446;6.792;2023-06-19T06:18:56;21.20;1.00
46492;DHT22;32206;51.446;6.792;2023-06-19T06:21:22;21.20;1.00
46492;DHT22;32206;51.446;6.792;2023-06-19T06:30:32;21.30;1.00
46492;DHT22;32206;51.446;6.792;2023-06-19T06:32:57;21.30;1.00
46492;DHT22;32206;51.446;6.792;2023-06-19T06:35:23;21.30;1.00
46492;DHT22;32206;51.446;6.792;2023-06-19T06:37:49;21.30;1.00
46492;DHT22;32206;51.446;6.792;2023-06-19T06:40:15;21.30;1.00
46492;DHT22;32206;51.446;6.792;2023-06-19T06:42:41;21.30;1.00
46492;DHT22;32206;51.446;6.792;2023-06-19T06:45:07;21.30;1.00
46492;DHT22;32206;51.446;6.792;2023-06-19T06:47:34;21.30;1.00
46492;DHT22;32206;51.446;6.792;2023-06-19T06:50:00;21.30;1.00
46492;DHT22;32206;51.446;6.792;2023-06-19T06:52:25;21.40;1.00
46492;DHT22;32206;51.446;6.792;2023-06-19T06:54:51;21.40;1.00
46492;DHT22;32206;51.446;6.792;2023-06-19T06:57:17;21.30;1.00
46492;DHT22;32206;51.446;6.792;2023-06-19T06:59:42;21.30;1.00
46492;DHT22;32206;51.446;6.792;2023-06-19T07:02:08;21.30;1.00
46492;DHT22;32206;51.446;6.792;2023-06-19T07:04:33;21.30;1.00
46492;DHT22;32206;51.446;6.792;2023-06-19T07:06:59;21.30;1.00
46492;DHT22;32206;51.446;6.792;2023-06-19T07:09:25;21.40;1.00
46492;DHT22;32206;51.446;6.792;2023-06-19T07:11:50;21.30;1.00
46492;DHT22;32206;51.446;6.792;2023-06-19T07:14:16;21.10;1.00
46492;DHT22;32206;51.446;6.792;2023-06-19T07:16:44;21.10;1.00
46492;DHT22;32206;51.446;6.792;2023-06-19T07:19:10;21.10;1.00
46492;DHT22;32206;51.446;6.792;2023-06-19T07:21:36;21.10;6.70
46492;DHT22;32206;51.446;6.792;2023-06-19T07:24:04;21.10;6.20
46492;DHT22;32206;51.446;6.792;2023-06-19T07:26:30;21.10;8.10
46492;DHT22;32206;51.446;6.792;2023-06-19T07:28:55;21.20;9.00
46492;DHT22;32206;51.446;6.792;2023-06-19T07:31:21;21.10;6.30
46492;DHT22;32206;51.446;6.792;2023-06-19T07:33:46;21.00;8.00
46492;DHT22;32206;51.446;6.792;2023-06-19T07:36:12;20.90;14.60
46492;DHT22;32206;51.446;6.792;2023-06-19T07:38:44;20.90;17.90
46492;DHT22;32206;51.446;6.792;2023-06-19T07:41:10;20.90;16.80
46492;DHT22;32206;51.446;6.792;2023-06-19T07:43:39;20.90;19.80
46492;DHT22;32206;51.446;6.792;2023-06-19T07:46:05;20.90;16.70
46492;DHT22;32206;51.446;6.792;2023-06-19T07:48:30;21.00;10.00
46492;DHT22;32206;51.446;6.792;2023-06-19T07:50:56;21.00;7.90
46492;DHT22;32206;51.446;6.792;2023-06-19T07:53:22;21.10;6.00
46492;DHT22;32206;51.446;6.792;2023-06-19T07:55:47;21.20;1.00
46492;DHT22;32206;51.446;6.792;2023-06-19T07:58:13;21.30;1.00
46492;DHT22;32206;51.446;6.792;2023-06-19T08:00:39;21.20;1.00
46492;DHT22;32206;51.446;6.792;2023-06-19T08:03:05;21.30;1.00
46492;DHT22;32206;51.446;6.792;2023-06-19T08:05:30;21.20;1.00
46492;DHT22;32206;51.446;6.792;2023-06-19T08:07:58;21.30;1.00
46492;DHT22;32206;51.446;6.792;2023-06-19T08:10:24;21.30;1.00
46492;DHT22;32206;51.446;6.792;2023-06-19T08:12:49;21.30;1.00
46492;DHT22;32206;51.446;6.792;2023-06-19T08:15:15;21.50;1.00
46492;DHT22;32206;51.446;6.792;2023-06-19T08:17:41;21.70;1.00
46492;DHT22;32206;51.446;6.792;2023-06-19T08:20:07;21.80;1.00
46492;DHT22;32206;51.446;6.792;2023-06-19T08:22:34;21.90;1.00
46492;DHT22;32206;51.446;6.792;2023-06-19T08:24:59;22.10;1.00
46492;DHT22;32206;51.446;6.792;2023-06-19T08:27:25;22.30;1.00
46492;DHT22;32206;51.446;6.792;2023-06-19T08:33:13;22.30;1.00
46492;DHT22;32206;51.446;6.792;2023-06-19T08:35:39;22.50;99.90
46492;DHT22;32206;51.446;6.792;2023-06-19T08:38:05;22.50;99.90
46492;DHT22;32206;51.446;6.792;2023-06-19T08:40:30;22.30;99.90
46492;DHT22;32206;51.446;6.792;2023-06-19T08:42:56;22.30;1.00
46492;DHT22;32206;51.446;6.792;2023-06-19T08:45:22;22.30;1.00
46492;DHT22;32206;51.446;6.792;2023-06-19T08:47:48;22.30;1.00
46492;DHT22;32206;51.446;6.792;2023-06-19T08:50:15;22.40;99.90
46492;DHT22;32206;51.446;6.792;2023-06-19T08:52:41;22.40;99.90
46492;DHT22;32206;51.446;6.792;2023-06-19T08:55:07;22.40;99.90
46492;DHT22;32206;51.446;6.792;2023-06-19T08:57:39;22.40;96.70
46492;DHT22;32206;51.446;6.792;2023-06-19T09:00:06;22.40;1.00
46492;DHT22;32206;51.446;6.792;2023-06-19T09:02:51;22.40;99.90
46492;DHT22;32206;51.446;6.792;2023-06-19T09:05:18;22.50;99.90
46492;DHT22;32206;51.446;6.792;2023-06-19T09:08:00;22.50;71.20
46492;DHT22;32206;51.446;6.792;2023-06-19T09:10:28;22.50;27.20
46492;DHT22;32206;51.446;6.792;2023-06-19T09:16:16;22.60;1.00
46492;DHT22;32206;51.446;6.792;2023-06-19T09:18:44;22.80;19.60
46492;DHT22;32206;51.446;6.792;2023-06-19T09:21:17;22.80;99.90
46492;DHT22;32206;51.446;6.792;2023-06-19T09:23:44;22.90;1.00
46492;DHT22;32206;51.446;6.792;2023-06-19T09:26:10;22.90;99.90
46492;DHT22;32206;51.446;6.792;2023-06-19T09:28:40;23.00;1.00
46492;DHT22;32206;51.446;6.792;2023-06-19T09:31:09;23.00;1.00
46492;DHT22;32206;51.446;6.792;2023-06-19T09:33:36;23.20;99.90
46492;DHT22;32206;51.446;6.792;2023-06-19T09:36:04;23.40;1.00
46492;DHT22;32206;51.446;6.792;2023-06-19T09:38:33;23.50;99.90
46492;DHT22;32206;51.446;6.792;2023-06-19T09:41:02;23.70;1.00
46492;DHT22;32206;51.446;6.792;2023-06-19T09:43:37;24.00;53.30
46492;DHT22;32206;51.446;6.792;2023-06-19T09:46:04;24.10;99.90
46492;DHT22;32206;51.446;6.792;2023-06-19T09:48:32;24.20;1.00
46492;DHT22;32206;51.446;6.792;2023-06-19T09:51:19;24.30;8.90
46492;DHT22;32206;51.446;6.792;2023-06-19T09:53:47;24.20;1.00
46492;DHT22;32206;51.446;6.792;2023-06-19T09:56:14;23.80;99.90
46492;DHT22;32206;51.446;6.792;2023-06-19T09:58:41;23.80;99.90
46492;DHT22;32206;51.446;6.792;2023-06-19T10:01:07;23.80;99.90
46492;DHT22;32206;51.446;6.792;2023-06-19T10:03:35;23.80;1.00
46492;DHT22;32206;51.446;6.792;2023-06-19T10:06:02;23.90;1.00
46492;DHT22;32206;51.446;6.792;2023-06-19T10:08:39;23.90;1.00
46492;DHT22;32206;51.446;6.792;2023-06-19T10:11:04;24.00;1.00
46492;DHT22;32206;51.446;6.792;2023-06-19T10:13:35;24.00;1.00
46492;DHT22;32206;51.446;6.792;2023-06-19T10:16:02;23.90;1.00
46492;DHT22;32206;51.446;6.792;2023-06-19T10:18:28;23.90;1.00
46492;DHT22;32206;51.446;6.792;2023-06-19T10:20:55;24.00;1.00
46492;DHT22;32206;51.446;6.792;2023-06-19T10:23:22;24.00;1.00
46492;DHT22;32206;51.446;6.792;2023-06-19T10:25:58;24.10;99.90
46492;DHT22;32206;51.446;6.792;2023-06-19T10:28:28;24.30;99.90
46492;DHT22;32206;51.446;6.792;2023-06-19T10:30:58;24.60;99.90
46492;DHT22;32206;51.446;6.792;2023-06-19T10:33:28;24.80;99.90
46492;DHT22;32206;51.446;6.792;2023-06-19T10:35:54;24.70;99.90
46492;DHT22;32206;51.446;6.792;2023-06-19T10:38:21;24.90;98.20
46492;DHT22;32206;51.446;6.792;2023-06-19T10:40:47;25.00;1.00
46492;DHT22;32206;51.446;6.792;2023-06-19T10:43:18;25.20;1.00
46492;DHT22;32206;51.446;6.792;2023-06-19T10:49:31;25.60;1.00
46492;DHT22;32206;51.446;6.792;2023-06-19T10:51:59;25.60;1.00
46492;DHT22;32206;51.446;6.792;2023-06-19T10:57:39;25.80;99.90
46492;DHT22;32206;51.446;6.792;2023-06-19T11:00:06;25.90;99.90
46492;DHT22;32206;51.446;6.792;2023-06-19T11:02:42;25.80;99.90
46492;DHT22;32206;51.446;6.792;2023-06-19T11:05:11;26.00;99.90
46492;DHT22;32206;51.446;6.792;2023-06-19T11:07:37;26.00;99.90
46492;DHT22;32206;51.446;6.792;2023-06-19T11:10:04;26.00;99.90
46492;DHT22;32206;51.446;6.792;2023-06-19T11:12:32;26.00;99.90
46492;DHT22;32206;51.446;6.792;2023-06-19T11:14:59;25.90;99.90
46492;DHT22;32206;51.446;6.792;2023-06-19T11:17:24;25.80;99.90
46492;DHT22;32206;51.446;6.792;2023-06-19T11:19:51;26.00;99.90
46492;DHT22;32206;51.446;6.792;2023-06-19T11:22:16;26.20;99.90
46492;DHT22;32206;51.446;6.792;2023-06-19T11:24:46;26.30;99.90
46492;DHT22;32206;51.446;6.792;2023-06-19T11:27:21;26.30;99.90
46492;DHT22;32206;51.446;6.792;2023-06-19T11:29:56;26.40;99.90
46492;DHT22;32206;51.446;6.792;2023-06-19T11:32:29;26.60;99.90
46492;DHT22;32206;51.446;6.792;2023-06-19T11:34:56;26.80;99.90
46492;DHT22;32206;51.446;6.792;2023-06-19T11:37:22;26.90;99.90
46492;DHT22;32206;51.446;6.792;2023-06-19T11:39:49;27.00;99.90
46492;DHT22;32206;51.446;6.792;2023-06-19T11:42:16;27.00;99.90
46492;DHT22;32206;51.446;6.792;2023-06-19T11:45:02;27.00;99.90
46492;DHT22;32206;51.446;6.792;2023-06-19T11:47:31;26.90;99.90
46492;DHT22;32206;51.446;6.792;2023-06-19T11:49:57;27.00;99.90
46492;DHT22;32206;51.446;6.792;2023-06-19T11:52:23;27.10;99.90
46492;DHT22;32206;51.446;6.792;2023-06-19T11:54:49;27.10;99.90
46492;DHT22;32206;51.446;6.792;2023-06-19T11:57:15;27.30;99.90
46492;DHT22;32206;51.446;6.792;2023-06-19T11:59:41;27.40;99.90
46492;DHT22;32206;51.446;6.792;2023-06-19T12:02:08;27.40;99.90
46492;DHT22;32206;51.446;6.792;2023-06-19T12:04:34;27.30;99.90
46492;DHT22;32206;51.446;6.792;2023-06-19T12:06:59;27.40;99.90
46492;DHT22;32206;51.446;6.792;2023-06-19T12:09:26;27.50;99.90
46492;DHT22;32206;51.446;6.792;2023-06-19T12:11:51;27.60;99.90
46492;DHT22;32206;51.446;6.792;2023-06-19T12:14:17;27.70;99.90
46492;DHT22;32206;51.446;6.792;2023-06-19T12:16:45;27.70;99.90
46492;DHT22;32206;51.446;6.792;2023-06-19T12:19:11;27.70;99.90
46492;DHT22;32206;51.446;6.792;2023-06-19T12:21:37;27.80;99.90
46492;DHT22;32206;51.446;6.792;2023-06-19T12:24:03;27.90;99.90
46492;DHT22;32206;51.446;6.792;2023-06-19T12:29:51;27.90;99.90
46492;DHT22;32206;51.446;6.792;2023-06-19T12:32:47;28.00;99.90
46492;DHT22;32206;51.446;6.792;2023-06-19T12:35:17;28.10;99.90
46492;DHT22;32206;51.446;6.792;2023-06-19T12:37:43;28.00;99.90
46492;DHT22;32206;51.446;6.792;2023-06-19T12:40:09;27.90;99.90
46492;DHT22;32206;51.446;6.792;2023-06-19T12:42:36;27.90;99.90
46492;DHT22;32206;51.446;6.792;2023-06-19T12:45:03;27.80;99.90
46492;DHT22;32206;51.446;6.792;2023-06-19T12:47:29;27.70;99.90
46492;DHT22;32206;51.446;6.792;2023-06-19T12:49:54;27.40;99.90
46492;DHT22;32206;51.446;6.792;2023-06-19T12:52:20;27.10;99.90
46492;DHT22;32206;51.446;6.792;2023-06-19T12:54:45;27.20;99.90
46492;DHT22;32206;51.446;6.792;2023-06-19T12:57:11;27.40;99.90
46492;DHT22;32206;51.446;6.792;2023-06-19T12:59:37;27.50;99.90
46492;DHT22;32206;51.446;6.792;2023-06-19T13:02:03;27.70;99.90
46492;DHT22;32206;51.446;6.792;2023-06-19T13:04:28;27.90;99.90
46492;DHT22;32206;51.446;6.792;2023-06-19T13:06:54;28.00;99.90
46492;DHT22;32206;51.446;6.792;2023-06-19T13:09:20;28.10;99.90
46492;DHT22;32206;51.446;6.792;2023-06-19T13:11:45;28.30;99.90
46492;DHT22;32206;51.446;6.792;2023-06-19T13:14:11;28.30;99.90
46492;DHT22;32206;51.446;6.792;2023-06-19T13:16:36;28.30;99.90
46492;DHT22;32206;51.446;6.792;2023-06-19T13:19:02;28.20;99.90
46492;DHT22;32206;51.446;6.792;2023-06-19T13:21:28;28.10;99.90
46492;DHT22;32206;51.446;6.792;2023-06-19T13:23:53;28.10;99.90
46492;DHT22;32206;51.446;6.792;2023-06-19T13:26:19;28.20;99.90
46492;DHT22;32206;51.446;6.792;2023-06-19T13:28:45;28.30;99.90
46492;DHT22;32206;51.446;6.792;2023-06-19T13:31:11;28.50;99.90
46492;DHT22;32206;51.446;6.792;2023-06-19T13:33:36;28.50;99.90
46492;DHT22;32206;51.446;6.792;2023-06-19T13:36:02;28.60;99.90
46492;DHT22;32206;51.446;6.792;2023-06-19T13:38:27;28.80;99.90
46492;DHT22;32206;51.446;6.792;2023-06-19T13:40:53;28.70;99.90
46492;DHT22;32206;51.446;6.792;2023-06-19T13:43:19;28.60;99.90
46492;DHT22;32206;51.446;6.792;2023-06-19T13:45:45;28.60;99.90
46492;DHT22;32206;51.446;6.792;2023-06-19T13:52:01;28.60;99.90
46492;DHT22;32206;51.446;6.792;2023-06-19T13:54:27;28.60;99.90
46492;DHT22;32206;51.446;6.792;2023-06-19T13:56:53;28.60;99.90
46492;DHT22;32206;51.446;6.792;2023-06-19T13:59:18;28.60;99.90
46492;DHT22;32206;51.446;6.792;2023-06-19T14:01:44;28.50;99.90
46492;DHT22;32206;51.446;6.792;2023-06-19T14:04:10;28.60;99.90
46492;DHT22;32206;51.446;6.792;2023-06-19T14:06:36;28.70;99.90
46492;DHT22;32206;51.446;6.792;2023-06-19T14:09:03;28.70;99.90
46492;DHT22;32206;51.446;6.792;2023-06-19T14:11:29;28.90;99.90
46492;DHT22;32206;51.446;6.792;2023-06-19T14:13:55;29.00;99.90
46492;DHT22;32206;51.446;6.792;2023-06-19T14:16:21;29.30;99.90
46492;DHT22;32206;51.446;6.792;2023-06-19T14:18:47;29.40;99.90
46492;DHT22;32206;51.446;6.792;2023-06-19T14:21:12;29.40;99.90
46492;DHT22;32206;51.446;6.792;2023-06-19T14:23:38;29.50;99.90
46492;DHT22;32206;51.446;6.792;2023-06-19T14:29:30;29.60;99.90
46492;DHT22;32206;51.446;6.792;2023-06-19T14:31:56;29.50;99.90
46492;DHT22;32206;51.446;6.792;2023-06-19T14:34:21;29.70;99.90
46492;DHT22;32206;51.446;6.792;2023-06-19T14:36:47;29.80;99.90
46492;DHT22;32206;51.446;6.792;2023-06-19T14:39:13;29.80;99.90
46492;DHT22;32206;51.446;6.792;2023-06-19T14:41:39;29.70;99.90
46492;DHT22;32206;51.446;6.792;2023-06-19T14:44:05;29.90;99.90
46492;DHT22;32206;51.446;6.792;2023-06-19T14:46:33;29.80;99.90
46492;DHT22;32206;51.446;6.792;2023-06-19T14:49:10;29.80;99.90
46492;DHT22;32206;51.446;6.792;2023-06-19T14:51:35;29.70;99.90
46492;DHT22;32206;51.446;6.792;2023-06-19T14:54:01;29.70;99.90
46492;DHT22;32206;51.446;6.792;2023-06-19T14:56:27;29.70;99.90
46492;DHT22;32206;51.446;6.792;2023-06-19T14:58:53;29.80;99.90
46492;DHT22;32206;51.446;6.792;2023-06-19T15:01:19;29.80;99.90
46492;DHT22;32206;51.446;6.792;2023-06-19T15:03:45;29.80;99.90
46492;DHT22;32206;51.446;6.792;2023-06-19T15:09:33;29.80;99.90
46492;DHT22;32206;51.446;6.792;2023-06-19T15:11:58;29.50;99.90
46492;DHT22;32206;51.446;6.792;2023-06-19T15:17:46;29.40;99.90
46492;DHT22;32206;51.446;6.792;2023-06-19T15:20:12;29.50;99.90
46492;DHT22;32206;51.446;6.792;2023-06-19T15:22:38;29.60;99.90
46492;DHT22;32206;51.446;6.792;2023-06-19T15:25:05;29.70;99.90
46492;DHT22;32206;51.446;6.792;2023-06-19T15:27:30;29.80;99.90
46492;DHT22;32206;51.446;6.792;2023-06-19T15:29:56;29.80;99.90
46492;DHT22;32206;51.446;6.792;2023-06-19T15:32:22;29.80;99.90
46492;DHT22;32206;51.446;6.792;2023-06-19T15:34:47;29.80;99.90
46492;DHT22;32206;51.446;6.792;2023-06-19T15:37:13;29.70;99.90
46492;DHT22;32206;51.446;6.792;2023-06-19T15:43:01;29.80;99.90
46492;DHT22;32206;51.446;6.792;2023-06-19T15:52:11;29.90;99.90
46492;DHT22;32206;51.446;6.792;2023-06-19T15:54:37;30.00;99.90
46492;DHT22;32206;51.446;6.792;2023-06-19T15:57:03;29.90;99.90
46492;DHT22;32206;51.446;6.792;2023-06-19T15:59:29;29.90;99.90
46492;DHT22;32206;51.446;6.792;2023-06-19T16:01:55;29.90;99.90
46492;DHT22;32206;51.446;6.792;2023-06-19T16:04:21;29.90;99.90
46492;DHT22;32206;51.446;6.792;2023-06-19T16:06:46;29.90;99.90
46492;DHT22;32206;51.446;6.792;2023-06-19T16:09:12;29.90;99.90
46492;DHT22;32206;51.446;6.792;2023-06-19T16:11:37;30.00;99.90
46492;DHT22;32206;51.446;6.792;2023-06-19T16:14:03;30.00;99.90
46492;DHT22;32206;51.446;6.792;2023-06-19T16:16:29;30.10;99.90
46492;DHT22;32206;51.446;6.792;2023-06-19T16:18:54;30.10;99.90
46492;DHT22;32206;51.446;6.792;2023-06-19T16:21:20;30.00;99.90
46492;DHT22;32206;51.446;6.792;2023-06-19T16:23:47;30.10;99.90
46492;DHT22;32206;51.446;6.792;2023-06-19T16:26:13;30.10;99.90
46492;DHT22;32206;51.446;6.792;2023-06-19T16:28:38;30.00;99.90
46492;DHT22;32206;51.446;6.792;2023-06-19T16:31:04;30.00;99.90
46492;DHT22;32206;51.446;6.792;2023-06-19T16:33:39;29.90;99.90
46492;DHT22;32206;51.446;6.792;2023-06-19T16:36:05;29.90;99.90
46492;DHT22;32206;51.446;6.792;2023-06-19T16:38:31;29.90;99.90
46492;DHT22;32206;51.446;6.792;2023-06-19T16:40:56;29.90;99.90
46492;DHT22;32206;51.446;6.792;2023-06-19T16:43:22;29.70;99.90
46492;DHT22;32206;51.446;6.792;2023-06-19T16:45:48;29.60;99.90
46492;DHT22;32206;51.446;6.792;2023-06-19T16:48:13;29.60;99.90
46492;DHT22;32206;51.446;6.792;2023-06-19T16:50:39;29.50;99.90
46492;DHT22;32206;51.446;6.792;2023-06-19T16:53:06;29.40;99.90
46492;DHT22;32206;51.446;6.792;2023-06-19T16:56:07;29.40;99.90
46492;DHT22;32206;51.446;6.792;2023-06-19T16:58:32;29.50;99.90